WAT197 EGJJ-EGJB

Flight info

Callsign WAT197
Flight time 0h 16m
Altitude 6000
Route GUR
Aircraft AT76/M-SDFGIRY/S

Departure

Time 2026-04-26 15:10
Airport Jersey Airport (EGJJ)

Arrival

Time 2026-04-26 15:27
Airport Guernsey Airport (EGJB)
Time Latitude Longitude Altitude Speed Heading
2026-04-26 14:57 49.20554 -2.19752 277 ft 0 kts 175°
2026-04-26 15:06 49.20561 -2.19753 277 ft 2 kts 175°
2026-04-26 15:06 49.20573 -2.19753 277 ft 2 kts 210°
2026-04-26 15:07 49.20579 -2.19759 277 ft 12 kts 260°
2026-04-26 15:07 49.20549 -2.19923 277 ft 13 kts 227°
2026-04-26 15:07 49.20531 -2.20060 277 ft 15 kts 282°
2026-04-26 15:08 49.20565 -2.20218 277 ft 16 kts 288°
2026-04-26 15:08 49.20598 -2.20385 276 ft 17 kts 285°
2026-04-26 15:08 49.20625 -2.20560 276 ft 17 kts 275°
2026-04-26 15:08 49.20652 -2.20683 276 ft 10 kts 343°
2026-04-26 15:09 49.20701 -2.20645 275 ft 8 kts 73°
2026-04-26 15:09 49.20729 -2.20407 276 ft 57 kts 81°
2026-04-26 15:09 49.20781 -2.19856 279 ft 98 kts 80°
2026-04-26 15:09 49.20907 -2.18555 715 ft 94 kts 76°
2026-04-26 15:10 49.21078 -2.17411 701 ft 144 kts 73°
2026-04-26 15:10 49.21161 -2.16870 633 ft 164 kts 76°
2026-04-26 15:10 49.21519 -2.14523 1021 ft 180 kts 77°
2026-04-26 15:10 49.21720 -2.13165 1221 ft 192 kts 77°
2026-04-26 15:11 49.21759 -2.12883 1272 ft 194 kts 77°
2026-04-26 15:11 49.22042 -2.10828 1530 ft 200 kts 79°
2026-04-26 15:11 49.22348 -2.08698 1654 ft 207 kts 76°
2026-04-26 15:11 49.23543 -2.06505 1919 ft 214 kts 24°
2026-04-26 15:12 49.25002 -2.06305 2193 ft 216 kts 347°
2026-04-26 15:12 49.26234 -2.07560 2503 ft 215 kts 307°
2026-04-26 15:12 49.26745 -2.08828 2747 ft 209 kts 298°
2026-04-26 15:12 49.27416 -2.10781 3109 ft 206 kts 295°
2026-04-26 15:13 49.28041 -2.12744 3470 ft 204 kts 293°
2026-04-26 15:13 49.28648 -2.14684 3866 ft 199 kts 294°
2026-04-26 15:13 49.29261 -2.16567 4291 ft 196 kts 294°
2026-04-26 15:13 49.30061 -2.19041 4791 ft 195 kts 295°
2026-04-26 15:14 49.30665 -2.20895 5147 ft 195 kts 296°
2026-04-26 15:14 49.31278 -2.22745 5503 ft 194 kts 297°
2026-04-26 15:14 49.31679 -2.23962 5725 ft 193 kts 297°
2026-04-26 15:14 49.32294 -2.25805 6041 ft 196 kts 297°
2026-04-26 15:15 49.32933 -2.27712 6146 ft 207 kts 297°
2026-04-26 15:15 49.33605 -2.29725 6194 ft 217 kts 297°
2026-04-26 15:15 49.34303 -2.31821 6213 ft 224 kts 297°
2026-04-26 15:15 49.35255 -2.34696 6227 ft 232 kts 297°
2026-04-26 15:16 49.35749 -2.36194 6232 ft 234 kts 297°
2026-04-26 15:16 49.36489 -2.38439 6237 ft 237 kts 297°
2026-04-26 15:16 49.37223 -2.40674 6230 ft 238 kts 295°
2026-04-26 15:16 49.37510 -2.43140 6232 ft 236 kts 268°
2026-04-26 15:17 49.37372 -2.45652 6231 ft 238 kts 265°
2026-04-26 15:17 49.37253 -2.47365 6232 ft 239 kts 264°
2026-04-26 15:17 49.36993 -2.50718 6236 ft 234 kts 264°
2026-04-26 15:17 49.36797 -2.53144 6063 ft 226 kts 263°
2026-04-26 15:18 49.36597 -2.55500 5804 ft 219 kts 264°
2026-04-26 15:18 49.36397 -2.57791 5550 ft 214 kts 263°
2026-04-26 15:18 49.36198 -2.60030 5303 ft 210 kts 263°
2026-04-26 15:18 49.36001 -2.62205 5061 ft 207 kts 263°
2026-04-26 15:19 49.35803 -2.64379 4812 ft 205 kts 263°
2026-04-26 15:19 49.35609 -2.66533 4555 ft 203 kts 263°
2026-04-26 15:19 49.35420 -2.68676 4291 ft 202 kts 263°
2026-04-26 15:19 49.35229 -2.70803 4037 ft 201 kts 263°
2026-04-26 15:20 49.35035 -2.72912 3785 ft 199 kts 263°
2026-04-26 15:20 49.34843 -2.75013 3547 ft 199 kts 263°
2026-04-26 15:20 49.34649 -2.77109 3291 ft 198 kts 263°
2026-04-26 15:20 49.34466 -2.79207 3038 ft 199 kts 263°
2026-04-26 15:21 49.34291 -2.81275 2790 ft 198 kts 263°
2026-04-26 15:21 49.34122 -2.83375 2524 ft 198 kts 263°
2026-04-26 15:21 49.34176 -2.85409 2354 ft 189 kts 292°
2026-04-26 15:21 49.35053 -2.86791 2259 ft 183 kts 337°
2026-04-26 15:22 49.36294 -2.86947 2107 ft 179 kts
2026-04-26 15:22 49.37560 -2.86803 2042 ft 185 kts
2026-04-26 15:22 49.38869 -2.86615 2011 ft 193 kts
2026-04-26 15:22 49.40218 -2.86377 1996 ft 195 kts
2026-04-26 15:23 49.41440 -2.85612 1984 ft 194 kts 29°
2026-04-26 15:23 49.42636 -2.84614 1979 ft 194 kts 31°
2026-04-26 15:23 49.43480 -2.83112 1974 ft 187 kts 73°
2026-04-26 15:23 49.43545 -2.81144 1991 ft 186 kts 92°
2026-04-26 15:24 49.43493 -2.79144 1993 ft 188 kts 93°
2026-04-26 15:24 49.43422 -2.77128 1994 ft 188 kts 95°
2026-04-26 15:24 49.43146 -2.75171 1993 ft 189 kts 106°
2026-04-26 15:24 49.43010 -2.73195 1884 ft 188 kts 83°
2026-04-26 15:25 49.43186 -2.71178 1628 ft 185 kts 83°
2026-04-26 15:25 49.43256 -2.69396 1389 ft 156 kts 89°
2026-04-26 15:25 49.43277 -2.67817 1192 ft 143 kts 88°
2026-04-26 15:25 49.43317 -2.66415 1018 ft 118 kts 86°
2026-04-26 15:26 49.43341 -2.65257 880 ft 102 kts 86°
2026-04-26 15:26 49.43395 -2.64185 689 ft 102 kts 83°
2026-04-26 15:26 49.43421 -2.63090 584 ft 104 kts 86°
2026-04-26 15:26 49.43451 -2.62013 415 ft 97 kts 85°
2026-04-26 15:27 49.43483 -2.61033 318 ft 84 kts 85°
2026-04-26 15:27 49.43495 -2.60626 309 ft 0 kts 96°
2026-04-26 15:27 49.43490 -2.60554 310 ft 26 kts 94°
2026-04-26 15:28 49.43496 -2.60303 313 ft 19 kts 85°
2026-04-26 15:28 49.43499 -2.60134 314 ft 17 kts 88°
2026-04-26 15:28 49.43491 -2.59888 318 ft 20 kts 131°
2026-04-26 15:28 49.43394 -2.59855 320 ft 14 kts 180°
2026-04-26 15:29 49.43330 -2.59917 319 ft 8 kts 207°
2026-04-26 15:29 49.43270 -2.59872 320 ft 9 kts 136°
2026-04-26 15:29 49.43258 -2.59866 320 ft 0 kts 184°